METAR Data
IDs: Format: Raw Decoded Include TAF

Data at: 1408 UTC 10 Jul 2020

KELP 101351Z 15009KT 10SM FEW070 FEW250 30/11 A3007 RMK AO2 SLP093 T03000106

KELP 101120Z 1012/1112 15010KT P6SM FEW150
  FM101700 13007KT P6SM FEW120